Superior, WI

3:23 AM CDT on May 23, 2017 (GMT -0500)
Bong

Weather History for KSUW - May, 2014

Change the Weather History Date:

Wednesday, May 7, 2014

  Actual Average Record
Temperature  
Mean Temperature 38 °F -  
Max Temperature 43 °F 56 °F 90 °F (1953)
Min Temperature 33 °F 37 °F 19 °F (1956)
Degree Days  
Heating Degree Days 27    
Moisture  
Dew Point 33 °F    
Average Humidity 83    
Maximum Humidity 97    
Minimum Humidity 70    
Precipitation  
Precipitation 0.20 in - - ()
Sea Level Pressure  
Sea Level Pressure 29.89 in    
Wind  
Wind Speed 14 mph (ENE)    
Max Wind Speed 22 mph    
Max Gust Speed 30 mph    
Visibility 10 miles    
Events Rain    
Averages and records for this station are not official NWS values.
T = Trace of Precipitation, MM = Missing Value Source: NWS Daily Summary

Daily Weather History Graph

Daily Weather History Graph

Search for Another Location

Airport or City:

Trip Planner

Search our weather history database for the weather conditions in past years. The results will help you decide how hot, cold, wet, or windy it might be!

Date:

Astronomy

May. 07, 2014 Rise Set
Actual Time 5:44 AM CDT 8:26 PM CDT
Civil Twilight 5:10 AM CDT 9:00 PM CDT
Nautical Twilight 4:26 AM CDT 9:44 PM CDT
Astronomical Twilight 3:35 AM CDT 10:36 PM CDT
Moon 1:06 PM CDT (5/7) 2:10 AM CDT (5/7)
Length of Visible Light 15h 50m
Length of Day
14h 41m
First Quarter, 55% of the Moon is Illuminated
May 7
First Quarter
May 14
Full
May 21
Last Quarter
May 28
New
Jun 5
First Quarter

Hourly Weather History & Observations

Time (CDT) Temp. Windchill Dew Point Humidity Pressure Visibility Wind Dir Wind Speed Gust Speed Precip Events Conditions
12:15 AM 35.1 °F 26.4 °F 32.0 °F 89% 29.98 in 10.0 mi ENE 12.7 mph 18.4 mph N/A   Overcast
12:35 AM 35.2 °F 27.1 °F 32.0 °F 88% 29.97 in 10.0 mi ENE 11.5 mph 17.3 mph N/A   Overcast
12:55 AM 35.2 °F 26.6 °F 32.0 °F 88% 29.97 in 10.0 mi ENE 12.7 mph 17.3 mph N/A   Mostly Cloudy
1:15 AM 35.2 °F 25.8 °F 32.0 °F 88% 29.97 in 10.0 mi ENE 15.0 mph - N/A   Scattered Clouds
1:35 AM 35.6 °F 26.2 °F 32.0 °F 87% 29.96 in 10.0 mi ENE 15.0 mph 23.0 mph N/A   Scattered Clouds
1:55 AM 35.6 °F 28.0 °F 32.0 °F 87% 29.97 in 10.0 mi ENE 10.4 mph - N/A   Mostly Cloudy
2:15 AM 35.6 °F 27.1 °F 32.0 °F 87% 29.96 in 10.0 mi ENE 12.7 mph 18.4 mph N/A   Overcast
2:35 AM 35.6 °F 27.1 °F 32.0 °F 87% 29.96 in 10.0 mi ENE 12.7 mph 19.6 mph N/A   Overcast
3:15 AM 35.2 °F 28.1 °F 32.4 °F 89% 29.98 in 10.0 mi ENE 9.2 mph - N/A Rain Light Rain
3:35 AM 34.9 °F 26.2 °F 32.9 °F 92% 29.97 in 10.0 mi ENE 12.7 mph 17.3 mph 0.01 in Rain Light Rain
3:55 AM 34.7 °F 24.7 °F 32.9 °F 93% 29.93 in 7.0 mi East 16.1 mph 21.9 mph 0.02 in Rain Light Rain
4:15 AM 34.3 °F 27.0 °F 33.1 °F 95% 29.95 in 3.0 mi ENE 9.2 mph 17.3 mph 0.04 in Rain Light Rain
4:35 AM 34.0 °F 26.0 °F 33.1 °F 96% 29.91 in 7.0 mi East 10.4 mph 19.6 mph 0.06 in Rain Light Rain
4:55 AM 34.5 °F 28.6 °F 33.6 °F 97% 29.93 in 7.0 mi NNE 6.9 mph - 0.09 in Rain Rain
5:15 AM 33.8 °F 27.0 °F 33.1 °F 97% 29.90 in 5.0 mi NE 8.1 mph - 0.03 in Rain Light Rain
5:35 AM 34.7 °F 25.5 °F 33.4 °F 95% 29.92 in 10.0 mi NE 13.8 mph 24.2 mph 0.03 in   Light Drizzle
5:55 AM 37.0 °F 28.5 °F 33.8 °F 88% 29.91 in 10.0 mi NE 13.8 mph 18.4 mph 0.03 in   Scattered Clouds
6:15 AM 37.4 °F 28.9 °F 33.3 °F 85% 29.92 in 10.0 mi NE 13.8 mph 20.7 mph N/A   Clear
6:35 AM 36.9 °F 29.1 °F 32.4 °F 84% 29.93 in 10.0 mi NE 11.5 mph 16.1 mph N/A   Clear
6:55 AM 36.7 °F 28.0 °F 32.2 °F 84% 29.94 in 10.0 mi ENE 13.8 mph 20.7 mph N/A   Clear
7:15 AM 37.4 °F 27.8 °F 32.4 °F 82% 29.95 in 10.0 mi NE 17.3 mph 23.0 mph N/A   Clear
7:35 AM 38.3 °F 29.7 °F 32.7 °F 80% 29.96 in 10.0 mi ENE 15.0 mph 20.7 mph N/A   Clear
7:55 AM 39.2 °F 30.5 °F 32.9 °F 78% 29.95 in 10.0 mi ENE 16.1 mph 24.2 mph N/A   Clear
8:15 AM 38.3 °F 30.9 °F 33.1 °F 81% 29.95 in 10.0 mi ENE 11.5 mph 23.0 mph N/A   Clear
8:35 AM 37.9 °F 29.6 °F 32.9 °F 82% 29.95 in 10.0 mi ENE 13.8 mph 20.7 mph N/A   Clear
8:55 AM 38.1 °F 29.5 °F 33.3 °F 83% 29.95 in 10.0 mi ENE 15.0 mph 21.9 mph N/A   Clear
9:15 AM 38.8 °F 30.0 °F 33.6 °F 82% 29.95 in 10.0 mi ENE 16.1 mph 25.3 mph N/A   Clear
9:35 AM 39.2 °F 31.2 °F 33.6 °F 80% 29.94 in 10.0 mi ENE 13.8 mph 21.9 mph N/A   Scattered Clouds
9:55 AM 40.5 °F 31.8 °F 34.3 °F 79% 29.93 in 10.0 mi ENE 17.3 mph 24.2 mph N/A   Scattered Clouds
10:15 AM 40.5 °F 31.8 °F 34.2 °F 78% 29.93 in 10.0 mi ENE 17.3 mph 21.9 mph N/A   Clear
10:35 AM 40.1 °F 31.6 °F 33.6 °F 78% 29.92 in 10.0 mi ENE 16.1 mph 27.6 mph N/A   Clear
10:55 AM 40.1 °F 31.6 °F 33.8 °F 78% 29.91 in 10.0 mi ENE 16.1 mph 27.6 mph N/A   Clear
11:15 AM 40.8 °F 31.1 °F 34.0 °F 77% 29.90 in 10.0 mi ENE 21.9 mph 26.5 mph N/A   Clear
11:35 AM 41.2 °F 33.0 °F 34.0 °F 76% 29.91 in 10.0 mi ENE 16.1 mph 27.6 mph N/A   Clear
11:55 AM 41.4 °F 34.0 °F 34.2 °F 76% 29.91 in 10.0 mi ENE 13.8 mph 24.2 mph N/A   Clear
12:15 PM 43.2 °F 36.6 °F 34.9 °F 73% 29.91 in 10.0 mi ENE 12.7 mph 20.7 mph N/A   Clear
12:35 PM 41.5 °F 32.4 °F 33.8 °F 74% 29.89 in 10.0 mi ENE 20.7 mph 27.6 mph N/A   Clear
12:55 PM 41.7 °F 33.7 °F 34.0 °F 74% 29.88 in 10.0 mi ENE 16.1 mph 27.6 mph N/A   Clear
1:15 PM 41.2 °F 32.4 °F 33.4 °F 74% 29.88 in 10.0 mi ENE 18.4 mph 28.8 mph N/A   Clear
1:35 PM 41.7 °F 32.6 °F 33.4 °F 72% 29.89 in 10.0 mi ENE 20.7 mph 26.5 mph N/A   Clear
1:55 PM 41.5 °F 33.2 °F 33.1 °F 72% 29.88 in 10.0 mi ENE 17.3 mph 26.5 mph N/A   Clear
2:15 PM 41.9 °F 32.8 °F 32.9 °F 70% 29.87 in 10.0 mi ENE 20.7 mph 26.5 mph N/A   Clear
2:35 PM 41.7 °F 32.9 °F 33.3 °F 72% 29.86 in 10.0 mi ENE 19.6 mph 29.9 mph N/A   Clear
2:55 PM 42.3 °F 34.4 °F 33.1 °F 70% 29.86 in 10.0 mi ENE 16.1 mph 26.5 mph N/A   Clear
3:15 PM 41.7 °F 33.1 °F 32.7 °F 70% 29.85 in 10.0 mi ENE 18.4 mph 26.5 mph N/A   Clear
3:55 PM 41.0 °F 31.4 °F 32.7 °F 72% 29.84 in 10.0 mi ENE 21.9 mph 29.9 mph N/A   Clear
4:15 PM 40.1 °F 30.2 °F 32.2 °F 73% 29.83 in 10.0 mi ENE 21.9 mph 29.9 mph N/A   Clear
4:35 PM 39.2 °F 29.6 °F 32.0 °F 75% 29.82 in 10.0 mi ENE 19.6 mph 26.5 mph N/A   Clear
4:55 PM 38.8 °F 30.0 °F 32.0 °F 76% 29.82 in 10.0 mi ENE 16.1 mph 29.9 mph N/A   Scattered Clouds
5:15 PM 38.3 °F 27.8 °F 32.0 °F 78% 29.81 in 10.0 mi ENE 21.9 mph 27.6 mph N/A   Mostly Cloudy
5:35 PM 37.8 °F 28.0 °F 32.0 °F 80% 29.82 in 10.0 mi ENE 18.4 mph 27.6 mph N/A   Overcast
5:55 PM 37.4 °F 28.2 °F 32.0 °F 81% 29.82 in 10.0 mi ENE 16.1 mph 25.3 mph N/A   Overcast
6:15 PM 36.3 °F 26.4 °F 33.1 °F 88% 29.81 in 3.0 mi ENE 17.3 mph 24.2 mph 0.03 in Rain Light Rain
6:35 PM 36.1 °F 25.5 °F 33.1 °F 89% 29.80 in 10.0 mi ENE 19.6 mph 28.8 mph 0.03 in   Overcast
6:55 PM 36.5 °F 27.8 °F 33.1 °F 87% 29.83 in 10.0 mi ENE 13.8 mph 20.7 mph 0.03 in   Overcast
7:15 PM 36.9 °F 28.7 °F 33.3 °F 87% 29.86 in 10.0 mi NE 12.7 mph 19.6 mph N/A   Overcast
7:35 PM 37.6 °F 28.4 °F 33.3 °F 84% 29.83 in 10.0 mi ENE 16.1 mph 23.0 mph N/A   Overcast
7:55 PM 39.0 °F 32.3 °F 33.8 °F 82% 29.86 in 10.0 mi ENE 10.4 mph - N/A   Overcast
8:15 PM 39.4 °F 32.7 °F 34.2 °F 82% 29.84 in 10.0 mi ENE 10.4 mph 19.6 mph N/A   Overcast
8:35 PM 39.7 °F 31.5 °F 34.7 °F 82% 29.87 in 10.0 mi NNE 15.0 mph 19.6 mph N/A   Overcast
8:55 PM 41.4 °F 34.0 °F 35.4 °F 79% 29.85 in 10.0 mi East 13.8 mph 20.7 mph N/A   Overcast
9:15 PM 42.4 °F 35.3 °F 36.7 °F 80% 29.83 in 10.0 mi ENE 13.8 mph 18.4 mph N/A   Overcast
9:35 PM 41.9 °F 33.4 °F 36.9 °F 82% 29.82 in 10.0 mi East 18.4 mph 23.0 mph N/A   Overcast
9:55 PM 39.4 °F 30.4 °F 35.8 °F 87% 29.82 in 10.0 mi East 17.3 mph 25.3 mph N/A   Overcast
10:15 PM 38.8 °F 30.4 °F 35.8 °F 89% 29.83 in 10.0 mi East 15.0 mph 21.9 mph N/A Rain Light Rain
10:35 PM 38.5 °F 29.9 °F 35.8 °F 90% 29.81 in 10.0 mi ENE 15.0 mph 19.6 mph N/A   Overcast
10:55 PM 37.4 °F 30.8 °F 35.1 °F 91% 29.84 in 10.0 mi East 9.2 mph 18.4 mph N/A   Overcast
11:15 PM 36.9 °F 26.8 °F 35.2 °F 94% 29.77 in 10.0 mi East 18.4 mph - N/A Rain Light Rain
11:35 PM 36.5 °F 30.3 °F 35.4 °F 96% 29.81 in 7.0 mi North 8.1 mph 13.8 mph 0.01 in Rain Light Rain
11:55 PM 36.1 °F 27.3 °F 35.1 °F 96% 29.81 in 7.0 mi NNE 13.8 mph 20.7 mph 0.03 in Rain Light Rain